Terminal Aerodrome Forecast
Issued by NWS Newport/Morehead City, NC

Home | Current Version | Previous Version | Text Only | Print | Product List | Glossary Off
Versions: 1 2 3 4 5 6 7 8 9 10 11 12 13 14 15

000
FTUS42 KMHX 231120
TAFEWN
TAF
KEWN 231120Z 2312/2412 09008KT P6SM BKN120
     FM231600 11012G24KT P6SM VCSH BKN035
     FM232300 10012G19KT 4SM RA OVC029
     FM240600 10013G16KT 4SM RA OVC019
     FM240900 10014G17KT 2SM +RA OVC009=

USA.gov is the U.S. government's official web portal to all federal, state and local government web resources and services.